Time;durP1;ratioP1;P1;durP2;ratioP2;P2;SDS_P1;SDS_P2;PMS_P1;PMS_P2;Temp;Humidity;BMP_temperature;BMP_pressure;BME280_temperature;BME280_humidity;BME280_pressure;Samples;Min_cycle;Max_cycle;Signal;HPM_P1;HPM_P2
2021/08/08 00:01:14;;;;;;;0.00;0.00;;;;;;;;;;10494014;28;20064;-24
2021/08/08 00:06:17;;;;;;;0.00;0.00;;;;;;;;;;10485955;28;20040;-24
2021/08/08 00:11:21;;;;;;;0.00;0.00;;;;;;;;;;10477323;28;20060;-23
2021/08/08 00:16:25;;;;;;;0.03;0.03;;;;;;;;;;10492374;28;20041;-24
2021/08/08 00:21:27;;;;;;;0.00;0.00;;;;;;;;;;10491560;28;20044;-24
2021/08/08 00:26:32;;;;;;;0.00;0.00;;;;;;;;;;10493517;28;20063;-24
2021/08/08 00:31:35;;;;;;;0.03;0.03;;;;;;;;;;10489834;28;20052;-24
2021/08/08 00:36:38;;;;;;;0.00;0.00;;;;;;;;;;10493283;28;20083;-23
2021/08/08 00:41:42;;;;;;;0.00;0.00;;;;;;;;;;10493070;28;20048;-24
2021/08/08 00:46:46;;;;;;;0.00;0.00;;;;;;;;;;10480194;28;20094;-25
2021/08/08 00:51:50;;;;;;;0.00;0.00;;;;;;;;;;10481013;28;20044;-24
2021/08/08 00:57:00;;;;;;;0.00;0.00;;;;;;;;;;10482906;28;20772;-23
2021/08/08 01:02:05;;;;;;;0.00;0.00;;;;;;;;;;10495920;28;20125;-24
2021/08/08 01:07:13;;;;;;;0.10;0.10;;;;;;;;;;10496988;28;20856;-25
2021/08/08 01:12:18;;;;;;;0.00;0.00;;;;;;;;;;10495525;28;20048;-25
2021/08/08 01:17:25;;;;;;;0.00;0.00;;;;;;;;;;10492990;28;20047;-24
2021/08/08 01:22:32;;;;;;;0.00;0.00;;;;;;;;;;10493153;28;20052;-24
2021/08/08 01:27:38;;;;;;;0.00;0.00;;;;;;;;;;10488432;28;20147;-24
2021/08/08 01:32:43;;;;;;;0.00;0.00;;;;;;;;;;10492077;28;20040;-24
2021/08/08 01:37:47;;;;;;;0.00;0.00;;;;;;;;;;10491367;28;20063;-26
2021/08/08 01:42:54;;;;;;;0.00;0.00;;;;;;;;;;10483996;28;20045;-24
2021/08/08 01:47:59;;;;;;;0.05;0.00;;;;;;;;;;10494366;28;20717;-25
2021/08/08 01:53:04;;;;;;;0.00;0.00;;;;;;;;;;10488390;28;20089;-25
2021/08/08 01:58:09;;;;;;;0.00;0.00;;;;;;;;;;10487386;28;20040;-24
2021/08/08 02:03:15;;;;;;;0.00;0.00;;;;;;;;;;10487785;28;20048;-24
2021/08/08 02:08:25;;;;;;;0.00;0.00;;;;;;;;;;10487963;28;20190;-25
2021/08/08 02:13:37;;;;;;;;;;;;;;;;;;10484769;28;20131;-24
2021/08/08 02:18:42;;;;;;;0.00;0.00;;;;;;;;;;10490794;28;20018;-24
2021/08/08 02:23:49;;;;;;;0.00;0.00;;;;;;;;;;10490501;28;20067;-24
2021/08/08 02:28:55;;;;;;;0.00;0.00;;;;;;;;;;10489332;28;20218;-25
2021/08/08 02:33:59;;;;;;;0.00;0.00;;;;;;;;;;10491975;28;20914;-24
2021/08/08 02:39:04;;;;;;;0.00;0.00;;;;;;;;;;10492272;28;20127;-25
2021/08/08 02:44:07;;;;;;;0.00;0.00;;;;;;;;;;10492626;28;20054;-24
2021/08/08 02:49:12;;;;;;;0.00;0.00;;;;;;;;;;10493431;28;20719;-25
2021/08/08 02:54:16;;;;;;;0.00;0.00;;;;;;;;;;10495707;28;20048;-24
2021/08/08 02:59:20;;;;;;;0.00;0.00;;;;;;;;;;10498723;28;20072;-24
2021/08/08 03:04:26;;;;;;;0.00;0.00;;;;;;;;;;10498964;28;20079;-24
2021/08/08 03:09:31;;;;;;;0.00;0.00;;;;;;;;;;10498856;28;20056;-24
2021/08/08 03:14:34;;;;;;;0.00;0.00;;;;;;;;;;10477150;28;20052;-24
2021/08/08 03:19:40;;;;;;;0.00;0.00;;;;;;;;;;10495056;28;20139;-24
2021/08/08 03:24:43;;;;;;;0.00;0.00;;;;;;;;;;10493305;28;20064;-24
2021/08/08 03:29:46;;;;;;;0.00;0.00;;;;;;;;;;10496587;28;20537;-24
2021/08/08 03:34:50;;;;;;;0.00;0.00;;;;;;;;;;10494642;28;20067;-24
2021/08/08 03:39:53;;;;;;;0.00;0.00;;;;;;;;;;10487432;28;20845;-24
2021/08/08 03:44:56;;;;;;;0.00;0.00;;;;;;;;;;10487182;28;20045;-24
2021/08/08 03:50:00;;;;;;;0.00;0.00;;;;;;;;;;10481094;28;20160;-24
2021/08/08 03:55:04;;;;;;;0.00;0.00;;;;;;;;;;10482860;28;20509;-24
2021/08/08 04:00:08;;;;;;;0.00;0.00;;;;;;;;;;10493869;28;20338;-25
2021/08/08 04:05:18;;;;;;;0.00;0.00;;;;;;;;;;10489305;28;20072;-24
2021/08/08 04:10:21;;;;;;;0.00;0.00;;;;;;;;;;10496355;28;20052;-24
2021/08/08 04:15:24;;;;;;;0.00;0.00;;;;;;;;;;10498517;28;20139;-25
2021/08/08 04:20:29;;;;;;;0.00;0.00;;;;;;;;;;10492533;28;20302;-26
2021/08/08 04:25:32;;;;;;;0.00;0.00;;;;;;;;;;10490135;28;20040;-25
2021/08/08 04:30:35;;;;;;;0.00;0.00;;;;;;;;;;10492828;28;20048;-24
2021/08/08 04:35:40;;;;;;;0.00;0.00;;;;;;;;;;10495536;28;20049;-24
2021/08/08 04:40:42;;;;;;;0.00;0.00;;;;;;;;;;10494582;28;20654;-24
2021/08/08 04:45:45;;;;;;;0.00;0.00;;;;;;;;;;10490066;28;20044;-24
2021/08/08 04:50:50;;;;;;;0.10;0.10;;;;;;;;;;10481343;28;20071;-25
2021/08/08 04:55:52;;;;;;;0.00;0.00;;;;;;;;;;10498190;28;20056;-24
2021/08/08 05:00:55;;;;;;;0.10;0.00;;;;;;;;;;10489189;28;20113;-25
2021/08/08 05:06:01;;;;;;;0.00;0.00;;;;;;;;;;10487090;28;20052;-24
2021/08/08 05:11:03;;;;;;;0.00;0.00;;;;;;;;;;10489768;28;20481;-24
2021/08/08 05:16:07;;;;;;;0.00;0.00;;;;;;;;;;10493372;28;20040;-24
2021/08/08 05:21:11;;;;;;;0.00;0.00;;;;;;;;;;10495159;28;20040;-25
2021/08/08 05:26:15;;;;;;;0.00;0.00;;;;;;;;;;10487043;28;20050;-24
2021/08/08 05:31:19;;;;;;;0.00;0.00;;;;;;;;;;10489856;28;20048;-24
2021/08/08 05:36:23;;;;;;;0.00;0.00;;;;;;;;;;10491981;28;20080;-25
2021/08/08 05:41:25;;;;;;;0.00;0.00;;;;;;;;;;10495137;28;20452;-24
2021/08/08 05:46:29;;;;;;;0.00;0.00;;;;;;;;;;10494885;28;20129;-26
2021/08/08 05:51:35;;;;;;;0.00;0.00;;;;;;;;;;10496956;28;20440;-25
2021/08/08 05:56:39;;;;;;;0.00;0.00;;;;;;;;;;10500906;28;20603;-26
2021/08/08 06:01:42;;;;;;;0.00;0.00;;;;;;;;;;10500095;28;20044;-26
2021/08/08 06:06:46;;;;;;;0.00;0.00;;;;;;;;;;10496766;28;20961;-24
2021/08/08 06:11:49;;;;;;;0.00;0.00;;;;;;;;;;10499210;28;20145;-25
2021/08/08 06:16:54;;;;;;;0.00;0.00;;;;;;;;;;10487713;28;20040;-25
2021/08/08 06:21:58;;;;;;;0.00;0.00;;;;;;;;;;10480938;28;20498;-24
2021/08/08 06:27:01;;;;;;;0.00;0.00;;;;;;;;;;10488616;28;20048;-24
2021/08/08 06:32:04;;;;;;;0.00;0.00;;;;;;;;;;10499508;28;20535;-25
2021/08/08 06:37:09;;;;;;;0.00;0.00;;;;;;;;;;10483288;28;20207;-24
2021/08/08 06:42:12;;;;;;;0.00;0.00;;;;;;;;;;10491437;28;20052;-24
2021/08/08 06:47:20;;;;;;;0.00;0.00;;;;;;;;;;10493476;28;20056;-24
2021/08/08 06:52:25;;;;;;;0.00;0.00;;;;;;;;;;10489933;28;20051;-25
2021/08/08 06:57:29;;;;;;;0.00;0.00;;;;;;;;;;10496561;28;20110;-25
2021/08/08 07:02:38;;;;;;;0.00;0.00;;;;;;;;;;10531573;27;20060;-26
2021/08/08 07:07:43;;;;;;;0.00;0.00;;;;;;;;;;10491146;28;20044;-25
2021/08/08 07:12:46;;;;;;;0.00;0.00;;;;;;;;;;10498744;28;20056;-25
2021/08/08 07:17:49;;;;;;;0.00;0.00;;;;;;;;;;10490636;28;20045;-25
2021/08/08 07:22:53;;;;;;;0.00;0.00;;;;;;;;;;10497984;28;20041;-25
2021/08/08 07:27:56;;;;;;;0.00;0.00;;;;;;;;;;10524237;27;20909;-24
2021/08/08 07:33:00;;;;;;;0.00;0.00;;;;;;;;;;10496232;28;20138;-26
2021/08/08 07:38:04;;;;;;;0.00;0.00;;;;;;;;;;10494196;28;20048;-25
2021/08/08 07:43:07;;;;;;;0.00;0.00;;;;;;;;;;10493908;28;20171;-24
2021/08/08 07:48:10;;;;;;;0.00;0.00;;;;;;;;;;10493849;28;20062;-25
2021/08/08 07:53:14;;;;;;;0.00;0.00;;;;;;;;;;10486945;28;20040;-25
2021/08/08 07:58:17;;;;;;;0.30;0.00;;;;;;;;;;10472556;28;20048;-26
2021/08/08 08:03:20;;;;;;;0.00;0.00;;;;;;;;;;10487472;28;20167;-24
2021/08/08 08:08:25;;;;;;;0.00;0.00;;;;;;;;;;10487193;28;20072;-26
2021/08/08 08:13:28;;;;;;;0.00;0.00;;;;;;;;;;10485117;28;20052;-25
2021/08/08 08:18:31;;;;;;;0.00;0.00;;;;;;;;;;10484344;28;20110;-25
2021/08/08 08:23:35;;;;;;;0.00;0.00;;;;;;;;;;10492270;28;20898;-24
2021/08/08 08:28:37;;;;;;;0.00;0.00;;;;;;;;;;10497386;28;20039;-25
2021/08/08 08:33:40;;;;;;;0.00;0.00;;;;;;;;;;10491440;28;20057;-25
2021/08/08 08:38:45;;;;;;;0.00;0.00;;;;;;;;;;10489758;28;20033;-25
2021/08/08 08:43:49;;;;;;;0.00;0.00;;;;;;;;;;10488762;28;20049;-24
2021/08/08 08:48:52;;;;;;;0.00;0.00;;;;;;;;;;10496329;28;20460;-25
2021/08/08 08:53:57;;;;;;;0.00;0.00;;;;;;;;;;10493140;28;20051;-25
2021/08/08 08:59:01;;;;;;;0.00;0.00;;;;;;;;;;10484752;28;20048;-25
2021/08/08 09:04:04;;;;;;;0.45;0.00;;;;;;;;;;10493903;28;20059;-25
2021/08/08 09:09:09;;;;;;;0.00;0.00;;;;;;;;;;10491074;28;20037;-26
2021/08/08 09:14:14;;;;;;;0.05;0.00;;;;;;;;;;10494193;28;20075;-24
2021/08/08 09:19:19;;;;;;;0.00;0.00;;;;;;;;;;10493142;28;20048;-25
2021/08/08 09:24:27;;;;;;;0.00;0.00;;;;;;;;;;10499408;28;20052;-25
2021/08/08 09:29:31;;;;;;;0.00;0.00;;;;;;;;;;10499449;28;20044;-25
2021/08/08 09:34:35;;;;;;;0.00;0.00;;;;;;;;;;10483683;28;20048;-25
2021/08/08 09:39:41;;;;;;;0.00;0.00;;;;;;;;;;10486982;28;20041;-26
2021/08/08 09:44:51;;;;;;;0.00;0.00;;;;;;;;;;10489592;28;20672;-24
2021/08/08 09:49:59;;;;;;;0.00;0.00;;;;;;;;;;10492196;28;20063;-25
2021/08/08 09:55:04;;;;;;;0.00;0.00;;;;;;;;;;10502675;28;20135;-23
2021/08/08 10:00:07;;;;;;;0.00;0.00;;;;;;;;;;10491323;28;20044;-24
2021/08/08 10:05:13;;;;;;;0.00;0.00;;;;;;;;;;10485337;28;20048;-25
2021/08/08 10:10:18;;;;;;;0.00;0.00;;;;;;;;;;10485481;28;20055;-25
2021/08/08 10:15:20;;;;;;;0.00;0.00;;;;;;;;;;10494040;28;20044;-24
2021/08/08 10:20:23;;;;;;;0.00;0.00;;;;;;;;;;10492668;28;20460;-24
2021/08/08 10:25:27;;;;;;;0.00;0.00;;;;;;;;;;10499397;28;20044;-24
2021/08/08 10:30:33;;;;;;;0.00;0.00;;;;;;;;;;10489989;28;20048;-24
2021/08/08 10:35:37;;;;;;;0.00;0.00;;;;;;;;;;10488157;28;20106;-24
2021/08/08 10:40:43;;;;;;;0.00;0.00;;;;;;;;;;10497729;28;20405;-24
2021/08/08 10:45:46;;;;;;;0.00;0.00;;;;;;;;;;10493380;28;20057;-24
2021/08/08 10:50:49;;;;;;;0.00;0.00;;;;;;;;;;10498421;28;20127;-23
2021/08/08 10:56:04;;;;;;;0.00;0.00;;;;;;;;;;10493787;28;20055;-24
2021/08/08 11:01:17;;;;;;;0.00;0.00;;;;;;;;;;10489602;28;20040;-24
2021/08/08 11:06:22;;;;;;;0.00;0.00;;;;;;;;;;10494802;28;20054;-24
2021/08/08 11:11:27;;;;;;;0.08;0.00;;;;;;;;;;10490467;28;20049;-24
2021/08/08 11:16:30;;;;;;;0.00;0.00;;;;;;;;;;10480584;28;20039;-24
2021/08/08 11:21:33;;;;;;;0.00;0.00;;;;;;;;;;10474564;28;20037;-26
2021/08/08 11:26:37;;;;;;;0.00;0.00;;;;;;;;;;10492579;28;20113;-25
2021/08/08 11:31:40;;;;;;;0.22;0.00;;;;;;;;;;10487580;28;20048;-25
2021/08/08 11:36:43;;;;;;;0.00;0.00;;;;;;;;;;10492725;28;20045;-25
2021/08/08 11:41:47;;;;;;;0.50;0.00;;;;;;;;;;10491307;28;20059;-25
2021/08/08 11:46:52;;;;;;;0.00;0.00;;;;;;;;;;10496236;28;20051;-25
2021/08/08 11:51:56;;;;;;;0.00;0.00;;;;;;;;;;10492485;28;20044;-25
2021/08/08 11:57:01;;;;;;;0.00;0.00;;;;;;;;;;10494517;28;20040;-25
2021/08/08 12:02:05;;;;;;;0.00;0.00;;;;;;;;;;10494506;28;20059;-25
2021/08/08 12:07:09;;;;;;;0.00;0.00;;;;;;;;;;10490259;28;20049;-25
2021/08/08 12:12:13;;;;;;;0.00;0.00;;;;;;;;;;10491854;28;20633;-26
2021/08/08 12:17:18;;;;;;;0.00;0.00;;;;;;;;;;10494331;28;20052;-25
2021/08/08 12:22:23;;;;;;;0.00;0.00;;;;;;;;;;10490680;28;20075;-26
2021/08/08 12:27:31;;;;;;;0.00;0.00;;;;;;;;;;10497857;28;20056;-25
2021/08/08 12:32:35;;;;;;;0.00;0.00;;;;;;;;;;10491878;28;20067;-25
2021/08/08 12:37:38;;;;;;;0.00;0.00;;;;;;;;;;10491698;28;20036;-25
2021/08/08 12:42:43;;;;;;;0.00;0.00;;;;;;;;;;10491386;28;20047;-25
2021/08/08 12:47:58;;;;;;;0.00;0.00;;;;;;;;;;10492246;28;20040;-26
2021/08/08 12:53:02;;;;;;;0.10;0.00;;;;;;;;;;10516563;28;20056;-26
2021/08/08 12:58:06;;;;;;;0.00;0.00;;;;;;;;;;10533810;28;20116;-26
2021/08/08 13:03:09;;;;;;;0.00;0.00;;;;;;;;;;10521639;28;20472;-26
2021/08/08 13:08:12;;;;;;;0.00;0.00;;;;;;;;;;10530021;27;20055;-27
2021/08/08 13:13:16;;;;;;;0.00;0.00;;;;;;;;;;10526485;28;20491;-27
2021/08/08 13:18:19;;;;;;;0.00;0.00;;;;;;;;;;10530213;28;20040;-26
2021/08/08 13:23:24;;;;;;;0.00;0.00;;;;;;;;;;10538283;28;20044;-26
2021/08/08 13:28:28;;;;;;;0.00;0.00;;;;;;;;;;10541179;28;20048;-25
2021/08/08 13:33:31;;;;;;;0.00;0.00;;;;;;;;;;10536634;28;20039;-25
2021/08/08 13:38:33;;;;;;;0.00;0.00;;;;;;;;;;10542660;28;20043;-25
2021/08/08 13:43:37;;;;;;;0.00;0.00;;;;;;;;;;10536052;28;20040;-25
2021/08/08 13:48:40;;;;;;;0.00;0.00;;;;;;;;;;10537750;28;20050;-25
2021/08/08 13:53:43;;;;;;;0.00;0.00;;;;;;;;;;10540584;28;20051;-27
2021/08/08 13:58:46;;;;;;;0.00;0.00;;;;;;;;;;10540135;28;20059;-25
2021/08/08 14:03:49;;;;;;;0.00;0.00;;;;;;;;;;10538314;28;20040;-25
2021/08/08 14:08:52;;;;;;;0.00;0.00;;;;;;;;;;10537326;28;20054;-25
2021/08/08 14:13:56;;;;;;;0.00;0.00;;;;;;;;;;10541469;27;20059;-24
2021/08/08 14:18:58;;;;;;;0.00;0.00;;;;;;;;;;10535255;28;20782;-24
2021/08/08 14:24:01;;;;;;;0.00;0.00;;;;;;;;;;10539282;28;20059;-24
2021/08/08 14:29:05;;;;;;;0.00;0.00;;;;;;;;;;10535364;28;20044;-24
2021/08/08 14:34:08;;;;;;;0.00;0.00;;;;;;;;;;10541457;28;20636;-24
2021/08/08 14:39:11;;;;;;;0.00;0.00;;;;;;;;;;10537361;28;20565;-24
2021/08/08 14:44:15;;;;;;;0.00;0.00;;;;;;;;;;10525219;28;20878;-24
2021/08/08 14:49:17;;;;;;;0.00;0.00;;;;;;;;;;10522243;28;20051;-24
2021/08/08 14:54:20;;;;;;;0.30;0.00;;;;;;;;;;10535448;28;20047;-23
2021/08/08 14:59:24;;;;;;;0.00;0.00;;;;;;;;;;10540449;28;21046;-24
2021/08/08 15:04:27;;;;;;;0.00;0.00;;;;;;;;;;10540608;28;20735;-23
2021/08/08 15:09:30;;;;;;;0.00;0.00;;;;;;;;;;10534434;28;20086;-25
2021/08/08 15:14:38;;;;;;;0.00;0.00;;;;;;;;;;10533813;28;20035;-24
2021/08/08 15:19:41;;;;;;;0.00;0.00;;;;;;;;;;10530056;28;20039;-24
2021/08/08 15:24:43;;;;;;;0.00;0.00;;;;;;;;;;10532591;28;20118;-24
2021/08/08 15:29:48;;;;;;;0.00;0.00;;;;;;;;;;10535042;28;20036;-25
2021/08/08 15:34:50;;;;;;;1.02;0.00;;;;;;;;;;10532106;28;20038;-24
2021/08/08 15:39:53;;;;;;;0.00;0.00;;;;;;;;;;10531842;28;20040;-24
2021/08/08 15:45:17;;;;;;;0.00;0.00;;;;;;;;;;10533886;28;20124;-24
2021/08/08 15:50:20;;;;;;;0.00;0.00;;;;;;;;;;10532740;28;20048;-24
2021/08/08 15:55:23;;;;;;;0.00;0.00;;;;;;;;;;10534220;28;20655;-24
2021/08/08 16:00:27;;;;;;;0.08;0.00;;;;;;;;;;10533098;28;20071;-24
2021/08/08 16:05:30;;;;;;;0.00;0.00;;;;;;;;;;10535615;28;20047;-24
2021/08/08 16:10:33;;;;;;;0.00;0.00;;;;;;;;;;10534422;28;20428;-24
2021/08/08 16:15:37;;;;;;;0.00;0.00;;;;;;;;;;10537271;28;20385;-24
2021/08/08 16:20:40;;;;;;;0.00;0.00;;;;;;;;;;10518055;28;20636;-24
2021/08/08 16:25:43;;;;;;;0.00;0.00;;;;;;;;;;10520951;28;20141;-24
2021/08/08 16:30:47;;;;;;;0.00;0.00;;;;;;;;;;10523090;28;20043;-24
2021/08/08 16:35:50;;;;;;;0.00;0.00;;;;;;;;;;10535918;28;20126;-24
2021/08/08 16:40:52;;;;;;;0.00;0.00;;;;;;;;;;10531833;28;20043;-24
2021/08/08 16:45:57;;;;;;;0.00;0.00;;;;;;;;;;10527404;28;20432;-24
2021/08/08 16:50:59;;;;;;;0.00;0.00;;;;;;;;;;10528443;28;20092;-24
2021/08/08 16:56:02;;;;;;;0.00;0.00;;;;;;;;;;10534774;28;20048;-24
2021/08/08 17:01:06;;;;;;;0.00;0.00;;;;;;;;;;10532471;28;20043;-24
2021/08/08 17:06:12;;;;;;;0.00;0.00;;;;;;;;;;10530957;28;20625;-23
2021/08/08 17:11:15;;;;;;;0.00;0.00;;;;;;;;;;10530096;28;20070;-24
2021/08/08 17:16:19;;;;;;;0.00;0.00;;;;;;;;;;10535291;28;20035;-23
2021/08/08 17:21:22;;;;;;;0.00;0.00;;;;;;;;;;10526181;28;20052;-24
2021/08/08 17:26:25;;;;;;;0.00;0.00;;;;;;;;;;10535073;28;20055;-23
2021/08/08 17:31:29;;;;;;;0.65;0.00;;;;;;;;;;10531489;28;20040;-23
2021/08/08 17:36:37;;;;;;;0.10;0.00;;;;;;;;;;10534450;28;20126;-24
2021/08/08 17:41:40;;;;;;;0.00;0.00;;;;;;;;;;10541234;28;20033;-23
2021/08/08 17:46:44;;;;;;;0.00;0.00;;;;;;;;;;10545709;28;20056;-24
2021/08/08 17:51:47;;;;;;;0.20;0.00;;;;;;;;;;10537717;28;20043;-23
2021/08/08 17:56:50;;;;;;;0.00;0.00;;;;;;;;;;10544470;28;20040;-23
2021/08/08 18:01:54;;;;;;;0.00;0.00;;;;;;;;;;10537362;28;20740;-23
2021/08/08 18:06:57;;;;;;;0.00;0.00;;;;;;;;;;10524811;28;20055;-23
2021/08/08 18:11:59;;;;;;;0.00;0.00;;;;;;;;;;10535269;28;20038;-23
2021/08/08 18:17:08;;;;;;;0.00;0.00;;;;;;;;;;10535788;28;20040;-23
2021/08/08 18:22:11;;;;;;;0.00;0.00;;;;;;;;;;10536930;27;20744;-23
2021/08/08 18:27:13;;;;;;;0.00;0.00;;;;;;;;;;10540343;28;20397;-23
2021/08/08 18:32:18;;;;;;;0.00;0.00;;;;;;;;;;10532250;28;20040;-23
2021/08/08 18:37:20;;;;;;;0.00;0.00;;;;;;;;;;10531580;28;20036;-23
2021/08/08 18:42:23;;;;;;;1.17;0.00;;;;;;;;;;10531549;28;20044;-23
2021/08/08 18:47:27;;;;;;;0.00;0.00;;;;;;;;;;10534182;28;20489;-24
2021/08/08 18:52:49;;;;;;;0.00;0.00;;;;;;;;;;10534345;28;20043;-23
2021/08/08 18:57:52;;;;;;;0.00;0.00;;;;;;;;;;10535205;28;20377;-24
2021/08/08 19:02:56;;;;;;;0.00;0.00;;;;;;;;;;10540152;28;20040;-23
2021/08/08 19:08:00;;;;;;;0.00;0.00;;;;;;;;;;10538685;28;20055;-24
2021/08/08 19:13:03;;;;;;;0.10;0.00;;;;;;;;;;10541173;28;20169;-23
2021/08/08 19:18:07;;;;;;;0.00;0.00;;;;;;;;;;10534735;28;20044;-24
2021/08/08 19:23:11;;;;;;;0.00;0.00;;;;;;;;;;10540883;28;20051;-23
2021/08/08 19:28:14;;;;;;;0.00;0.00;;;;;;;;;;10536660;28;20055;-24
2021/08/08 19:33:18;;;;;;;0.00;0.00;;;;;;;;;;10536590;28;20056;-24
2021/08/08 19:38:21;;;;;;;0.00;0.00;;;;;;;;;;10536573;28;20044;-23
2021/08/08 19:43:24;;;;;;;0.00;0.00;;;;;;;;;;10522181;28;20067;-25
2021/08/08 19:48:30;;;;;;;0.00;0.00;;;;;;;;;;10529025;28;20055;-23
2021/08/08 19:53:34;;;;;;;0.40;0.00;;;;;;;;;;10535897;28;20040;-23
2021/08/08 19:58:36;;;;;;;0.00;0.00;;;;;;;;;;10520719;28;20543;-24
2021/08/08 20:03:40;;;;;;;0.00;0.00;;;;;;;;;;10518922;28;20535;-23
2021/08/08 20:08:43;;;;;;;0.00;0.00;;;;;;;;;;10521188;28;20063;-26
2021/08/08 20:13:46;;;;;;;0.00;0.00;;;;;;;;;;10530120;28;20512;-23
2021/08/08 20:18:50;;;;;;;0.00;0.00;;;;;;;;;;10535076;28;20089;-23
2021/08/08 20:23:53;;;;;;;0.00;0.00;;;;;;;;;;10526345;28;20855;-23
2021/08/08 20:28:58;;;;;;;0.00;0.00;;;;;;;;;;10536139;28;20147;-24
2021/08/08 20:34:03;;;;;;;0.00;0.00;;;;;;;;;;10535943;28;20815;-23
2021/08/08 20:39:07;;;;;;;0.00;0.00;;;;;;;;;;10534467;28;20055;-24
2021/08/08 20:44:10;;;;;;;0.00;0.00;;;;;;;;;;10526548;28;20040;-23
2021/08/08 20:49:15;;;;;;;0.00;0.00;;;;;;;;;;10530993;27;20036;-23
2021/08/08 20:54:17;;;;;;;0.00;0.00;;;;;;;;;;10540910;28;20039;-23
2021/08/08 20:59:20;;;;;;;0.00;0.00;;;;;;;;;;10534676;28;20374;-23
2021/08/08 21:04:24;;;;;;;0.00;0.00;;;;;;;;;;10535464;28;20036;-23
2021/08/08 21:09:27;;;;;;;0.00;0.00;;;;;;;;;;10538269;28;20056;-23
2021/08/08 21:14:29;;;;;;;0.10;0.10;;;;;;;;;;10536819;28;20040;-23
2021/08/08 21:19:34;;;;;;;0.10;0.10;;;;;;;;;;10542241;28;20118;-25
2021/08/08 21:24:36;;;;;;;0.00;0.00;;;;;;;;;;10539864;28;20039;-23
2021/08/08 21:29:39;;;;;;;0.00;0.00;;;;;;;;;;10533193;28;20043;-23
2021/08/08 21:34:43;;;;;;;0.00;0.00;;;;;;;;;;10537142;28;20043;-23
2021/08/08 21:39:46;;;;;;;0.00;0.00;;;;;;;;;;10537507;28;20047;-23
2021/08/08 21:44:52;;;;;;;0.00;0.00;;;;;;;;;;10546869;28;20044;-24
2021/08/08 21:49:56;;;;;;;0.00;0.00;;;;;;;;;;10546565;28;20118;-25
2021/08/08 21:54:59;;;;;;;0.05;0.00;;;;;;;;;;10535810;28;20063;-26
2021/08/08 22:00:03;;;;;;;0.00;0.00;;;;;;;;;;10531290;28;20090;-25
2021/08/08 22:05:09;;;;;;;0.00;0.00;;;;;;;;;;10529512;28;20115;-26
2021/08/08 22:10:11;;;;;;;0.00;0.00;;;;;;;;;;10533671;28;20047;-25
2021/08/08 22:15:16;;;;;;;0.00;0.00;;;;;;;;;;10537269;28;20439;-26
2021/08/08 22:20:20;;;;;;;0.00;0.00;;;;;;;;;;10531328;28;20064;-27
2021/08/08 22:25:25;;;;;;;0.00;0.00;;;;;;;;;;10530637;28;20047;-26
2021/08/08 22:30:28;;;;;;;0.00;0.00;;;;;;;;;;10532826;28;20039;-25
2021/08/08 22:35:33;;;;;;;0.00;0.00;;;;;;;;;;10533183;28;20043;-25
2021/08/08 22:40:37;;;;;;;0.00;0.00;;;;;;;;;;10537716;28;20036;-26
2021/08/08 22:45:40;;;;;;;0.00;0.00;;;;;;;;;;10544839;28;20648;-24
2021/08/08 22:50:47;;;;;;;0.00;0.00;;;;;;;;;;10542047;28;20043;-26
2021/08/08 22:55:50;;;;;;;0.10;0.00;;;;;;;;;;10538645;28;20069;-25
2021/08/08 23:00:54;;;;;;;0.10;0.10;;;;;;;;;;10543581;28;20481;-26
2021/08/08 23:05:59;;;;;;;0.00;0.00;;;;;;;;;;10541676;28;20159;-25
2021/08/08 23:11:03;;;;;;;0.00;0.00;;;;;;;;;;10525345;28;20512;-25
2021/08/08 23:16:05;;;;;;;0.00;0.00;;;;;;;;;;10541385;28;20059;-24
2021/08/08 23:21:10;;;;;;;0.00;0.00;;;;;;;;;;10538334;28;20052;-25
2021/08/08 23:26:12;;;;;;;0.00;0.00;;;;;;;;;;10539079;28;20040;-25
2021/08/08 23:31:15;;;;;;;0.00;0.00;;;;;;;;;;10535846;28;20040;-25
2021/08/08 23:36:19;;;;;;;0.00;0.00;;;;;;;;;;10533873;28;20511;-26
2021/08/08 23:41:22;;;;;;;0.00;0.00;;;;;;;;;;10538618;28;20051;-26
2021/08/08 23:46:24;;;;;;;0.00;0.00;;;;;;;;;;10537523;28;20047;-25
2021/08/08 23:51:29;;;;;;;0.00;0.00;;;;;;;;;;10541371;28;20047;-25
2021/08/08 23:56:31;;;;;;;0.00;0.00;;;;;;;;;;10533999;28;20039;-25
